Trident — ZCYT9 — position and weather

sailwx.info

Track history (hours):
 
Tides and Currents Weather Stations Pressure Air Temp Water Temp Dewpoint Dewpoint Depression Visibility Wind Speed Wind Dir Waves Ship Positions

Trident

Last reported at 2016-Jul-27 08:27 UTC. Time now 2016-Jul-27 09:38 UTC.
Position N 37°55' E 023°01'.

Length 65 m; draft 3.4 m.

Type: Pleasure craft. MMSI: 319764000.

Date/timePositionNaut miles runAvg speedWind from/ knotsBaromVisibWave heightAir tempDewpointWater temp
2016-Jul-27 08:27N 37°55' E 023°01'2 2.0
2016-Jul-27 07:33N 37°54' E 023°03'1515.4
2016-Jul-27 06:34N 37°52' E 023°22'1414.2
2016-Jul-27 05:33N 37°50' E 023°40'1414.0
2016-Jul-27 04:32N 37°39' E 023°49'1513.4
2016-Jul-27 03:26N 37°36' E 024°08'1213.8
2016-Jul-27 02:33N 37°43' E 024°21'1413.9
2016-Jul-27 01:33N 37°50' E 024°36'1413.1
2016-Jul-27 00:28N 37°44' E 024°52'1313.9
2016-Jul-26 23:33N 37°35' E 025°03'1413.4
2016-Jul-26 22:32N 37°27' E 025°18'1 1.3
2016-Jul-26 21:29N 37°27' E 025°20'0 0.0
2016-Jul-26 20:32N 37°27' E 025°20'0 0.0
2016-Jul-26 19:29N 37°27' E 025°20'0 0.0
2016-Jul-26 18:29N 37°27' E 025°20'0 0.0
2016-Jul-26 17:32N 37°27' E 025°20'0 0.0
2016-Jul-26 16:29N 37°27' E 025°20'0 0.0
2016-Jul-26 15:32N 37°27' E 025°20'0 0.0
2016-Jul-26 14:29N 37°27' E 025°20'0 0.0
2016-Jul-26 13:17N 37°27' E 025°20'0 0.0
2016-Jul-26 12:17N 37°27' E 025°20'0 0.0
2016-Jul-26 11:29N 37°27' E 025°20'0 0.0
2016-Jul-26 10:17N 37°27' E 025°20'0 0.0
2016-Jul-26 09:17N 37°27' E 025°20'0 0.0
2016-Jul-26 07:29N 37°27' E 025°20'0 0.0
2016-Jul-26 06:29N 37°27' E 025°20'0 0.0
2016-Jul-25 21:05N 37°27' E 025°20'0 0.0
2016-Jul-25 20:32N 37°27' E 025°20'0 0.0
2016-Jul-25 19:29N 37°27' E 025°20'0 0.0
2016-Jul-25 18:17N 37°27' E 025°20'0 0.0
2016-Jul-25 17:17N 37°27' E 025°20'0 0.0
2016-Jul-25 16:23N 37°27' E 025°20'0 0.0
2016-Jul-25 15:29N 37°27' E 025°20'0 0.0
2016-Jul-25 14:33N 37°27' E 025°20'2 1.7
2016-Jul-25 13:34N 37°28' E 025°18'8 7.3
2016-Jul-25 12:30N 37°27' E 025°27'0 0.0
2016-Jul-25 11:26N 37°26' E 025°27'0 0.0
2016-Jul-25 10:23N 37°26' E 025°27'0 0.0
2016-Jul-25 08:28N 37°27' E 025°27'0 0.0
2016-Jul-25 07:34N 37°26' E 025°27'0 0.1
2016-Jul-25 06:34N 37°26' E 025°27'0 0.0
2016-Jul-25 05:33N 37°26' E 025°27'1 1.3
2016-Jul-25 04:33N 37°26' E 025°26'1313.2
2016-Jul-25 03:34N 37°19' E 025°12'1313.4
2016-Jul-25 02:34N 37°14' E 024°56'  
Track history (hours):
 
Tides and Currents Weather Stations Pressure Air Temp Water Temp Dewpoint Dewpoint Depression Visibility Wind Speed Wind Dir Waves Ship Positions

Trident

Last reported at 2016-Jul-27 08:27 UTC. Time now 2016-Jul-27 09:38 UTC.
Position N 37°55' E 023°01'.

Length 65 m; draft 3.4 m.

Type: Pleasure craft. MMSI: 319764000.

Date/timePositionNaut miles runAvg speedWind from/ knotsBaromVisibWave heightAir tempDewpointWater temp
2016-Jul-27 08:27N 37°55' E 023°01'2 2.0
2016-Jul-27 07:33N 37°54' E 023°03'1515.4
2016-Jul-27 06:34N 37°52' E 023°22'1414.2
2016-Jul-27 05:33N 37°50' E 023°40'1414.0
2016-Jul-27 04:32N 37°39' E 023°49'1513.4
2016-Jul-27 03:26N 37°36' E 024°08'1213.8
2016-Jul-27 02:33N 37°43' E 024°21'1413.9
2016-Jul-27 01:33N 37°50' E 024°36'1413.1
2016-Jul-27 00:28N 37°44' E 024°52'1313.9
2016-Jul-26 23:33N 37°35' E 025°03'1413.4
2016-Jul-26 22:32N 37°27' E 025°18'1 1.3
2016-Jul-26 21:29N 37°27' E 025°20'0 0.0
2016-Jul-26 20:32N 37°27' E 025°20'0 0.0
2016-Jul-26 19:29N 37°27' E 025°20'0 0.0
2016-Jul-26 18:29N 37°27' E 025°20'0 0.0
2016-Jul-26 17:32N 37°27' E 025°20'0 0.0
2016-Jul-26 16:29N 37°27' E 025°20'0 0.0
2016-Jul-26 15:32N 37°27' E 025°20'0 0.0
2016-Jul-26 14:29N 37°27' E 025°20'0 0.0
2016-Jul-26 13:17N 37°27' E 025°20'0 0.0
2016-Jul-26 12:17N 37°27' E 025°20'0 0.0
2016-Jul-26 11:29N 37°27' E 025°20'0 0.0
2016-Jul-26 10:17N 37°27' E 025°20'0 0.0
2016-Jul-26 09:17N 37°27' E 025°20'0 0.0
2016-Jul-26 07:29N 37°27' E 025°20'0 0.0
2016-Jul-26 06:29N 37°27' E 025°20'0 0.0
2016-Jul-25 21:05N 37°27' E 025°20'0 0.0
2016-Jul-25 20:32N 37°27' E 025°20'0 0.0
2016-Jul-25 19:29N 37°27' E 025°20'0 0.0
2016-Jul-25 18:17N 37°27' E 025°20'0 0.0
2016-Jul-25 17:17N 37°27' E 025°20'0 0.0
2016-Jul-25 16:23N 37°27' E 025°20'0 0.0
2016-Jul-25 15:29N 37°27' E 025°20'0 0.0
2016-Jul-25 14:33N 37°27' E 025°20'2 1.7
2016-Jul-25 13:34N 37°28' E 025°18'8 7.3
2016-Jul-25 12:30N 37°27' E 025°27'0 0.0
2016-Jul-25 11:26N 37°26' E 025°27'0 0.0
2016-Jul-25 10:23N 37°26' E 025°27'0 0.0
2016-Jul-25 08:28N 37°27' E 025°27'0 0.0
2016-Jul-25 07:34N 37°26' E 025°27'0 0.1
2016-Jul-25 06:34N 37°26' E 025°27'0 0.0
2016-Jul-25 05:33N 37°26' E 025°27'1 1.3
2016-Jul-25 04:33N 37°26' E 025°26'1313.2
2016-Jul-25 03:34N 37°19' E 025°12'1313.4
2016-Jul-25 02:34N 37°14' E 024°56'  

Dump ship's entire track history